Time;durP1;ratioP1;P1;durP2;ratioP2;P2;SDS_P1;SDS_P2;PMS_P1;PMS_P2;Temp;Humidity;BMP_temperature;BMP_pressure;BME280_temperature;BME280_humidity;BME280_pressure;Samples;Min_cycle;Max_cycle;Signal;HPM_P1;HPM_P2
2023/04/30 00:00:21;;;;;;;9.00;2.93;;;;;;;17.34;45.35;98709.66;4862255;29;20300;-91
2023/04/30 00:02:48;;;;;;;4.70;2.33;;;;;;;17.42;46.05;98709.81;4862301;29;20215;-91
2023/04/30 00:05:15;;;;;;;5.13;2.63;;;;;;;17.44;46.18;98710.50;4846316;29;20554;-91
2023/04/30 00:07:41;;;;;;;8.07;3.10;;;;;;;17.39;46.99;98705.63;4862899;29;20652;-91
2023/04/30 00:10:09;;;;;;;6.07;2.93;;;;;;;17.37;47.43;98702.28;4846366;29;20188;-91
2023/04/30 00:12:36;;;;;;;7.60;3.53;;;;;;;17.37;47.74;98696.97;4861358;29;20212;-91
2023/04/30 00:15:01;;;;;;;7.27;4.10;;;;;;;17.41;47.22;98698.38;4862791;29;20177;-92
2023/04/30 00:17:27;;;;;;;7.23;3.80;;;;;;;17.42;47.74;98697.41;4862443;29;20191;-92
2023/04/30 00:19:54;;;;;;;8.47;4.00;;;;;;;17.45;47.44;98698.97;4862330;29;20224;-92
2023/04/30 00:22:21;;;;;;;6.83;4.10;;;;;;;17.46;47.43;98698.81;4862337;29;20184;-92
2023/04/30 00:24:46;;;;;;;6.63;3.83;;;;;;;17.42;48.33;98696.56;4862407;29;20195;-91
2023/04/30 00:27:13;;;;;;;7.47;3.00;;;;;;;17.48;47.98;98696.84;4845678;29;20192;-91
2023/04/30 00:29:40;;;;;;;8.23;3.63;;;;;;;17.47;47.66;98703.16;4862613;29;20177;-91
2023/04/30 00:32:05;;;;;;;7.10;2.70;;;;;;;17.29;49.25;98702.09;4861851;29;20183;-91
2023/04/30 00:34:31;;;;;;;7.00;3.20;;;;;;;17.17;49.95;98705.78;4845399;29;20250;-91
2023/04/30 00:36:56;;;;;;;10.73;3.80;;;;;;;17.06;49.75;98704.06;4846147;29;20179;-91
2023/04/30 00:39:23;;;;;;;10.13;3.00;;;;;;;17.02;49.72;98704.47;4845378;29;20208;-91
2023/04/30 00:41:50;;;;;;;12.37;2.93;;;;;;;17.06;49.77;98706.72;4845843;29;20631;-91
2023/04/30 00:44:15;;;;;;;8.80;2.80;;;;;;;17.17;49.13;98706.63;4845679;29;20602;-92
2023/04/30 00:46:41;;;;;;;4.27;2.77;;;;;;;17.23;49.13;98702.63;4845653;29;20180;-92
2023/04/30 00:49:07;;;;;;;7.77;2.83;;;;;;;17.26;48.85;98707.66;4861742;29;20189;-92
2023/04/30 00:51:34;;;;;;;5.87;3.20;;;;;;;17.22;48.87;98719.47;4862583;29;20545;-92
2023/04/30 00:54:04;;;;;;;5.97;3.00;;;;;;;17.06;49.04;98712.00;4880035;29;20689;-91
2023/04/30 00:56:31;;;;;;;5.83;2.57;;;;;;;17.05;49.21;98715.66;4880322;29;20536;-91
2023/04/30 00:58:58;;;;;;;6.33;2.43;;;;;;;17.04;49.18;98707.81;4866981;29;20275;-90
2023/04/30 01:01:25;;;;;;;9.07;3.33;;;;;;;17.02;49.13;98700.03;4845047;29;20222;-91
2023/04/30 01:03:52;;;;;;;12.03;3.13;;;;;;;17.01;49.28;98700.13;4844313;29;20204;-91
2023/04/30 01:06:19;;;;;;;6.03;3.10;;;;;;;17.02;49.23;98699.16;4861412;29;20257;-92
2023/04/30 01:08:47;;;;;;;7.10;2.60;;;;;;;16.95;49.34;98693.59;4845164;29;20275;-92
2023/04/30 01:11:25;;;;;;;10.20;2.90;;;;;;;16.92;49.23;98700.94;4845163;29;20192;-91
2023/04/30 01:14:24;;;;;;;7.20;3.50;;;;;;;16.83;49.57;98693.75;4861642;29;20187;-91
2023/04/30 01:17:03;;;;;;;5.43;2.47;;;;;;;16.81;49.64;98701.00;4861634;29;20168;-92
2023/04/30 01:19:45;;;;;;;6.57;2.97;;;;;;;16.81;49.88;98695.72;4860458;29;20287;-92
2023/04/30 01:22:25;;;;;;;10.23;3.20;;;;;;;16.75;50.26;98694.41;4850749;29;20198;-92
2023/04/30 01:25:30;;;;;;;6.63;3.30;;;;;;;16.73;51.07;98693.72;4863387;29;20188;-91
2023/04/30 01:28:19;;;;;;;5.63;2.63;;;;;;;16.64;52.58;98694.47;4863143;29;20176;-91
2023/04/30 01:30:46;;;;;;;4.43;2.83;;;;;;;16.66;52.29;98691.72;4880150;29;20156;-91
2023/04/30 01:33:12;;;;;;;5.53;3.47;;;;;;;16.66;51.80;98687.28;4876860;29;20193;-91
2023/04/30 01:36:06;;;;;;;5.50;3.20;;;;;;;16.66;51.56;98691.72;4860827;29;20238;-91
2023/04/30 01:38:53;;;;;;;6.70;3.10;;;;;;;16.67;51.59;98688.94;4861483;29;20185;-90
2023/04/30 01:41:56;;;;;;;6.60;3.00;;;;;;;16.61;51.70;98700.06;4844488;29;20208;-90
2023/04/30 01:44:28;;;;;;;9.70;2.90;;;;;;;16.55;51.54;98701.41;4861372;29;20174;-91
2023/04/30 01:47:03;;;;;;;7.00;3.00;;;;;;;16.53;51.46;98699.84;4844533;29;20282;-91
2023/04/30 01:50:07;;;;;;;5.60;3.10;;;;;;;16.50;52.04;98700.91;4844691;29;20167;-91
2023/04/30 01:52:45;;;;;;;5.00;2.20;;;;;;;16.38;53.19;98696.63;4844617;29;20190;-91
2023/04/30 01:55:16;;;;;;;6.83;3.60;;;;;;;16.29;53.46;98691.28;4844650;29;20182;-92
2023/04/30 01:57:56;;;;;;;4.93;2.60;;;;;;;16.13;54.26;98699.63;4844612;29;20640;-92
2023/04/30 02:00:25;;;;;;;4.63;2.93;;;;;;;16.07;54.39;98697.47;4861148;29;20211;-91
2023/04/30 02:02:52;;;;;;;6.47;3.33;;;;;;;15.98;54.61;98700.88;4875953;29;20192;-91
2023/04/30 02:05:20;;;;;;;4.80;2.63;;;;;;;15.93;54.97;98697.78;4862948;29;20183;-91
2023/04/30 02:07:49;;;;;;;4.93;2.87;;;;;;;15.94;54.22;98684.44;4878524;29;20226;-91
2023/04/30 02:10:17;;;;;;;4.70;2.77;;;;;;;15.99;54.04;98684.03;4879217;29;20197;-91
2023/04/30 02:12:44;;;;;;;7.73;3.30;;;;;;;15.94;54.00;98684.44;4879570;29;20183;-91
2023/04/30 02:15:11;;;;;;;8.07;3.70;;;;;;;15.96;53.82;98687.78;4864779;29;20217;-92
2023/04/30 02:17:38;;;;;;;7.90;3.80;;;;;;;15.98;53.40;98685.03;4882999;29;20273;-91
2023/04/30 02:20:07;;;;;;;8.10;3.47;;;;;;;15.91;53.90;98684.69;4866085;29;20213;-91
2023/04/30 02:22:35;;;;;;;7.37;3.33;;;;;;;15.84;54.26;98682.66;4881868;29;20565;-91
2023/04/30 02:25:02;;;;;;;8.03;3.30;;;;;;;15.81;54.49;98686.38;4882778;29;20183;-91
2023/04/30 02:27:30;;;;;;;5.77;3.63;;;;;;;15.80;55.14;98686.53;4882694;29;20276;-92
2023/04/30 02:29:56;;;;;;;7.67;3.20;;;;;;;15.89;54.92;98685.75;4882509;29;20688;-91
2023/04/30 02:32:23;;;;;;;7.67;3.43;;;;;;;15.96;54.67;98685.13;4882780;29;20185;-92
2023/04/30 02:34:49;;;;;;;6.23;3.43;;;;;;;15.97;54.82;98701.84;4883026;29;20236;-91
2023/04/30 02:37:16;;;;;;;7.00;3.80;;;;;;;15.87;54.56;98692.97;4866323;29;20193;-92
2023/04/30 02:39:43;;;;;;;8.93;3.97;;;;;;;15.75;55.76;98693.97;4866182;29;20268;-92
2023/04/30 02:42:08;;;;;;;6.93;3.37;;;;;;;15.66;56.20;98692.06;4864342;29;20192;-91
2023/04/30 02:44:35;;;;;;;5.37;3.27;;;;;;;15.64;56.30;98683.44;4864416;29;20218;-91
2023/04/30 02:47:01;;;;;;;7.23;3.33;;;;;;;15.67;56.07;98685.84;4864113;29;20184;-92
2023/04/30 02:49:28;;;;;;;15.70;3.90;;;;;;;15.67;56.58;98691.94;4863637;29;20176;-91
2023/04/30 02:51:55;;;;;;;6.17;3.30;;;;;;;15.63;57.65;98692.31;4862900;29;20181;-91
2023/04/30 02:54:22;;;;;;;7.00;3.70;;;;;;;15.61;57.53;98689.81;4863807;29;20175;-91
2023/04/30 02:56:48;;;;;;;9.40;3.13;;;;;;;15.56;58.20;98699.06;4863825;29;20175;-91
2023/04/30 02:59:15;;;;;;;7.80;3.60;;;;;;;15.53;58.36;98688.72;4847105;29;20642;-92
2023/04/30 03:01:42;;;;;;;7.13;3.43;;;;;;;15.64;58.00;98701.94;4847226;29;20547;-91
2023/04/30 03:04:08;;;;;;;6.47;3.03;;;;;;;15.58;57.92;98692.69;4850887;29;20342;-92
2023/04/30 03:06:35;;;;;;;11.70;4.67;;;;;;;15.53;57.72;98694.00;4882554;29;20181;-92
2023/04/30 03:09:02;;;;;;;7.40;3.63;;;;;;;15.51;57.29;98698.59;4882303;29;20178;-91
2023/04/30 03:11:29;;;;;;;9.27;4.70;;;;;;;15.53;57.24;98694.84;4878326;29;20179;-92
2023/04/30 03:13:55;;;;;;;13.10;5.20;;;;;;;15.53;57.13;98696.66;4863604;29;20180;-91
2023/04/30 03:16:21;;;;;;;11.13;5.43;;;;;;;15.52;57.51;98693.16;4868154;29;20231;-91
2023/04/30 03:18:48;;;;;;;14.07;5.50;;;;;;;15.51;57.76;98691.50;4869617;29;20301;-91
2023/04/30 03:21:15;;;;;;;14.17;5.80;;;;;;;15.52;57.86;98694.97;4862561;29;20200;-92
2023/04/30 03:23:42;;;;;;;11.03;4.23;;;;;;;15.57;57.55;98696.28;4861897;29;20837;-90
2023/04/30 03:26:10;;;;;;;11.27;4.27;;;;;;;15.59;57.19;98701.47;4845548;29;20201;-91
2023/04/30 03:28:36;;;;;;;7.67;4.53;;;;;;;15.61;57.25;98702.16;4862450;29;20667;-91
2023/04/30 03:31:04;;;;;;;9.77;3.90;;;;;;;15.59;56.77;98698.81;4862512;29;20291;-90
2023/04/30 03:33:32;;;;;;;9.33;4.47;;;;;;;15.54;57.68;98698.34;4862972;29;20182;-90
2023/04/30 03:35:58;;;;;;;9.87;4.33;;;;;;;15.46;57.99;98700.75;4831142;29;20256;-91
2023/04/30 03:38:25;;;;;;;13.47;4.87;;;;;;;15.39;57.68;98695.91;4846559;29;20294;-92
2023/04/30 03:40:51;;;;;;;7.23;4.00;;;;;;;15.46;57.48;98703.41;4845918;29;20270;-91
2023/04/30 03:43:19;;;;;;;9.40;4.47;;;;;;;15.49;57.09;98706.63;4867120;29;20198;-91
2023/04/30 03:45:45;;;;;;;9.00;4.13;;;;;;;15.54;57.21;98707.09;4858249;29;20205;-90
2023/04/30 03:48:15;;;;;;;6.63;4.33;;;;;;;15.48;57.51;98723.44;4848057;29;20186;-92
2023/04/30 03:50:43;;;;;;;9.20;4.07;;;;;;;15.47;58.03;98712.97;4845986;29;20269;-91
2023/04/30 03:53:10;;;;;;;13.40;4.30;;;;;;;15.52;57.70;98719.59;4865698;29;20656;-91
2023/04/30 03:55:36;;;;;;;7.80;4.23;;;;;;;15.57;57.57;98722.69;4861996;29;20196;-90
2023/04/30 03:58:05;;;;;;;10.27;4.87;;;;;;;15.64;57.18;98723.06;4864602;29;20178;-92
2023/04/30 04:00:31;;;;;;;6.67;3.70;;;;;;;15.72;57.21;98723.28;4864228;29;20197;-90
2023/04/30 04:03:01;;;;;;;9.10;4.50;;;;;;;15.75;56.79;98723.88;4847887;29;20551;-90
2023/04/30 04:05:28;;;;;;;7.33;3.40;;;;;;;15.78;56.48;98720.13;4864171;29;20209;-90
2023/04/30 04:07:56;;;;;;;9.10;4.03;;;;;;;15.76;57.11;98722.06;4850961;29;20189;-91
2023/04/30 04:10:23;;;;;;;7.10;4.03;;;;;;;15.74;57.62;98724.00;4866518;29;20183;-91
2023/04/30 04:12:50;;;;;;;8.40;5.03;;;;;;;15.81;57.78;98720.75;4863879;29;20600;-91
2023/04/30 04:15:16;;;;;;;8.23;4.00;;;;;;;15.87;57.99;98722.06;4861959;29;20656;-92
2023/04/30 04:17:43;;;;;;;7.33;3.70;;;;;;;15.93;58.17;98719.75;4864435;29;20197;-92
2023/04/30 04:20:12;;;;;;;5.63;3.07;;;;;;;15.96;58.49;98732.72;4845386;29;20605;-91
2023/04/30 04:22:39;;;;;;;6.53;3.57;;;;;;;16.00;58.80;98741.25;4861985;29;20660;-92
2023/04/30 04:25:06;;;;;;;13.10;4.90;;;;;;;16.08;58.82;98738.84;4861959;29;20182;-92
2023/04/30 04:27:33;;;;;;;30.57;10.80;;;;;;;16.07;59.20;98737.13;4831724;29;20180;-91
2023/04/30 04:30:03;;;;;;;25.30;10.17;;;;;;;16.06;59.45;98739.91;4880697;29;20261;-92
2023/04/30 04:32:31;;;;;;;10.67;5.70;;;;;;;16.06;59.22;98751.34;4864437;29;20182;-92
2023/04/30 04:34:57;;;;;;;9.27;5.40;;;;;;;16.07;59.02;98745.06;4863944;29;20190;-92
2023/04/30 04:37:23;;;;;;;10.80;4.83;;;;;;;16.11;58.63;98749.16;4870515;29;20179;-92
2023/04/30 04:39:50;;;;;;;9.07;4.50;;;;;;;16.18;58.56;98754.78;4861776;29;20564;-92
2023/04/30 04:42:16;;;;;;;7.97;4.57;;;;;;;16.23;58.71;98753.44;4845719;29;20190;-92
2023/04/30 04:44:43;;;;;;;11.03;5.10;;;;;;;16.23;59.01;98753.44;4861955;29;20187;-92
2023/04/30 04:47:09;;;;;;;12.10;5.70;;;;;;;16.26;59.19;98755.00;4865861;29;20564;-92
2023/04/30 04:49:36;;;;;;;10.50;5.93;;;;;;;16.29;59.02;98749.47;4868096;29;20182;-92
2023/04/30 04:52:04;;;;;;;10.30;5.47;;;;;;;16.35;58.78;98755.06;4861769;29;20202;-93
2023/04/30 04:54:31;;;;;;;7.77;4.97;;;;;;;16.41;58.68;98749.28;4864540;29;20198;-91
2023/04/30 04:56:56;;;;;;;7.53;4.77;;;;;;;16.45;58.90;98753.38;4864857;29;20231;-91
2023/04/30 04:59:23;;;;;;;10.17;5.60;;;;;;;16.46;58.38;98762.13;4849387;29;20195;-92
2023/04/30 05:01:50;;;;;;;7.73;4.57;;;;;;;16.51;58.35;98763.44;4872852;29;20242;-93
2023/04/30 05:04:17;;;;;;;9.67;5.13;;;;;;;16.56;58.01;98761.28;4852322;29;20183;-91
2023/04/30 05:06:43;;;;;;;9.23;4.77;;;;;;;16.61;57.25;98760.06;4857925;29;20190;-91
2023/04/30 05:09:11;;;;;;;7.63;4.23;;;;;;;16.52;57.66;98754.56;4871355;29;20198;-91
2023/04/30 05:11:37;;;;;;;8.60;4.60;;;;;;;16.54;58.43;98755.28;4848143;29;20549;-91
2023/04/30 05:14:14;;;;;;;6.57;4.10;;;;;;;16.58;58.25;98756.72;4865182;29;20198;-92
2023/04/30 05:16:41;;;;;;;8.47;3.87;;;;;;;16.65;58.15;98757.03;4873500;29;20647;-92
2023/04/30 05:19:08;;;;;;;8.50;4.13;;;;;;;16.81;57.71;98769.81;4865004;29;20207;-91
2023/04/30 05:21:39;;;;;;;14.20;4.33;;;;;;;16.79;56.74;98766.47;4862500;29;20282;-92
2023/04/30 05:24:05;;;;;;;8.03;3.77;;;;;;;16.77;57.17;98763.13;4869385;29;20183;-92
2023/04/30 05:26:32;;;;;;;7.33;3.90;;;;;;;16.86;57.44;98767.63;4871314;29;20276;-92
2023/04/30 05:28:58;;;;;;;6.10;3.50;;;;;;;16.87;57.23;98764.88;4862519;29;20203;-92
2023/04/30 05:31:25;;;;;;;6.67;3.97;;;;;;;16.81;58.62;98769.81;4851176;29;20546;-91
2023/04/30 05:33:52;;;;;;;6.60;4.27;;;;;;;16.93;57.95;98774.06;4848368;29;20210;-92
2023/04/30 05:36:19;;;;;;;7.37;3.80;;;;;;;17.00;57.91;98770.81;4847122;29;20211;-91
2023/04/30 05:38:45;;;;;;;8.20;3.87;;;;;;;17.24;57.36;98778.47;4844552;29;20188;-91
2023/04/30 05:41:12;;;;;;;7.97;4.30;;;;;;;17.22;57.39;98782.22;4852823;29;20231;-94
2023/04/30 05:43:38;;;;;;;6.27;4.03;;;;;;;17.37;56.87;98779.09;4850354;29;20259;-92
2023/04/30 05:46:03;;;;;;;8.27;4.53;;;;;;;17.66;56.08;98779.28;4847709;29;20188;-92
2023/04/30 05:48:30;;;;;;;9.90;3.80;;;;;;;17.74;54.93;98766.19;4863864;29;20626;-92
2023/04/30 05:50:56;;;;;;;7.63;4.17;;;;;;;17.94;54.47;98775.88;4847132;29;20183;-91
2023/04/30 05:53:21;;;;;;;6.53;3.10;;;;;;;18.16;53.86;98778.28;4849340;29;20195;-90
2023/04/30 05:55:49;;;;;;;7.50;3.43;;;;;;;18.27;53.08;98770.22;4872370;29;20338;-93
2023/04/30 05:58:15;;;;;;;7.03;2.93;;;;;;;18.51;53.02;98772.50;4848214;29;20204;-92
2023/04/30 06:00:43;;;;;;;6.93;3.17;;;;;;;18.78;52.02;98772.66;4848377;29;20200;-92
2023/04/30 06:03:10;;;;;;;8.77;3.77;;;;;;;18.97;51.65;98780.56;4860955;29;20203;-92
2023/04/30 06:05:36;;;;;;;7.40;3.93;;;;;;;19.40;51.90;98776.59;4867341;29;20207;-92
2023/04/30 06:08:03;;;;;;;6.50;3.13;;;;;;;19.93;46.10;98767.00;4848333;29;20649;-93
2023/04/30 06:10:29;;;;;;;8.00;3.60;;;;;;;20.10;45.24;98768.88;4864078;29;20184;-93
2023/04/30 06:12:58;;;;;;;7.07;3.10;;;;;;;20.05;44.58;98770.28;4877421;29;20202;-91
2023/04/30 06:15:23;;;;;;;6.90;3.53;;;;;;;20.06;43.83;98778.13;4862784;29;20680;-93
2023/04/30 06:17:49;;;;;;;8.13;3.10;;;;;;;19.89;44.73;98775.44;4877835;29;20274;-92
2023/04/30 06:20:14;;;;;;;8.27;3.63;;;;;;;19.98;44.68;98774.53;4851960;29;20200;-92
2023/04/30 08:06:12;;;;;;;9.23;4.30;;;;;;;25.65;34.17;98768.50;4854792;29;20334;-92
2023/04/30 08:08:44;;;;;;;6.87;3.07;;;;;;;25.35;35.11;98764.06;4830224;29;20193;-92
2023/04/30 08:11:37;;;;;;;7.07;3.57;;;;;;;25.76;35.25;98762.63;4846477;29;20200;-93
2023/04/30 08:14:07;;;;;;;7.10;2.90;;;;;;;25.64;36.46;98764.13;4853154;29;20188;-91
2023/04/30 08:16:39;;;;;;;8.70;3.57;;;;;;;25.83;34.31;98750.16;4846230;29;20195;-91
2023/04/30 08:19:33;;;;;;;;;;;;;;;;;;;;;
2023/04/30 08:22:07;;;;;;;8.07;3.93;;;;;;;26.14;36.20;98761.53;4862419;29;20637;-92
2023/04/30 08:24:34;;;;;;;8.23;3.90;;;;;;;25.55;32.47;98754.53;4846408;29;20207;-90
2023/04/30 08:27:02;;;;;;;5.53;2.97;;;;;;;25.94;34.92;98751.53;4846283;29;20196;-91
2023/04/30 08:29:40;;;;;;;;;;;;;;;;;;;;;
2023/04/30 08:32:43;;;;;;;4.82;2.33;;;;;;;26.46;32.97;98756.72;4862540;29;20209;-91
2023/04/30 08:35:12;;;;;;;4.25;2.10;;;;;;;25.90;29.99;98748.38;4861900;29;20543;-92
2023/04/30 08:37:41;;;;;;;4.82;1.92;;;;;;;26.13;31.13;98748.28;4861213;29;20256;-91
2023/04/30 08:40:10;;;;;;;5.53;2.20;;;;;;;25.69;32.39;98755.50;4846428;29;20208;-91
2023/04/30 08:42:48;;;;;;;6.43;2.30;;;;;;;25.75;32.64;98746.72;4861282;29;20216;-92
2023/04/30 08:45:15;;;;;;;4.88;2.60;;;;;;;25.74;31.63;98751.25;4831436;29;20579;-91
2023/04/30 08:47:51;;;;;;;4.45;2.45;;;;;;;25.58;33.17;98743.38;4845355;29;20299;-91
2023/04/30 08:54:45;;;;;;;4.68;2.15;;;;;;;26.21;32.70;98746.31;4852307;29;20204;-92
2023/04/30 08:57:18;;;;;;;7.75;1.95;;;;;;;26.38;31.74;98730.81;4794265;29;20214;-90
2023/04/30 09:00:25;;;;;;;3.88;1.90;;;;;;;26.61;33.19;98741.34;4845799;29;20681;-90
2023/04/30 09:07:18;;;;;;;;;;;;;;;;;;;;;
2023/04/30 09:14:23;;;;;;;7.65;2.65;;;;;;;26.03;32.35;98737.81;4683781;30;20199;-91
2023/04/30 09:17:34;;;;;;;4.18;2.13;;;;;;;25.42;33.18;98732.81;4678639;30;20213;-92
2023/04/30 09:20:12;;;;;;;4.97;1.90;;;;;;;26.33;31.93;98725.16;4733087;30;20235;-90
2023/04/30 09:33:34;;;;;;;2.70;1.38;;;;;;;27.15;29.99;98710.19;4658091;30;20273;-92
2023/04/30 09:36:45;;;;;;;2.10;1.20;;;;;;;26.85;29.53;98714.13;4650215;30;20218;-89
2023/04/30 09:39:12;;;;;;;4.95;1.60;;;;;;;26.36;30.60;98711.34;4666026;30;20212;-89
2023/04/30 09:41:45;;;;;;;3.70;1.40;;;;;;;26.73;30.68;98719.13;4798729;29;20229;-92
2023/04/30 09:44:34;;;;;;;4.32;1.40;;;;;;;26.63;29.41;98709.72;4832384;29;20207;-92
2023/04/30 09:47:00;;;;;;;2.35;1.80;;;;;;;26.55;31.30;98705.31;4848813;29;20184;-90
2023/04/30 09:49:27;;;;;;;2.53;1.38;;;;;;;26.58;31.17;98706.78;4844922;29;20650;-90
2023/04/30 09:51:57;;;;;;;2.47;1.23;;;;;;;26.33;31.27;98710.88;4845064;29;20208;-90
2023/04/30 09:54:31;;;;;;;3.88;1.20;;;;;;;26.75;30.22;98710.91;4857813;29;20204;-91
2023/04/30 09:57:00;;;;;;;4.32;1.30;;;;;;;26.74;30.08;98704.69;4844460;29;20194;-89
2023/04/30 09:59:35;;;;;;;2.08;0.90;;;;;;;26.88;29.58;98691.38;4844677;29;20204;-90
2023/04/30 10:02:22;;;;;;;;;;;;;;;;;;;;;
2023/04/30 10:04:54;;;;;;;3.28;1.40;;;;;;;27.37;29.91;98686.75;4878167;29;20231;-91
2023/04/30 10:07:23;;;;;;;3.17;1.10;;;;;;;27.71;28.96;98685.91;4862806;29;20184;-91
2023/04/30 10:10:08;;;;;;;3.05;1.10;;;;;;;27.40;27.82;98679.16;4860023;29;20180;-90
2023/04/30 10:13:01;;;;;;;4.97;1.30;;;;;;;27.19;27.55;98689.13;4844684;29;20189;-90
2023/04/30 10:15:50;;;;;;;3.08;1.35;;;;;;;27.36;29.74;98672.44;4844408;29;20195;-90
2023/04/30 10:18:38;;;;;;;3.80;1.13;;;;;;;27.26;28.89;98680.06;4842815;29;20192;-90
2023/04/30 10:21:11;;;;;;;3.35;1.23;;;;;;;27.27;28.60;98672.81;4860267;29;20650;-91
2023/04/30 10:23:38;;;;;;;4.25;1.40;;;;;;;27.26;29.22;98677.38;4843693;29;20287;-91
2023/04/30 10:26:07;;;;;;;2.28;1.00;;;;;;;27.51;28.94;98667.00;4843420;29;20583;-92
2023/04/30 10:28:39;;;;;;;2.70;1.30;;;;;;;27.15;28.61;98674.41;4859691;29;20235;-91
2023/04/30 10:31:06;;;;;;;2.60;1.17;;;;;;;26.99;28.07;98675.50;4859930;29;20216;-91
2023/04/30 10:33:36;;;;;;;2.92;1.27;;;;;;;27.07;28.89;98667.28;4843281;29;20207;-91
2023/04/30 10:36:10;;;;;;;3.72;1.48;;;;;;;27.04;30.79;98670.41;4875969;29;20200;-90
2023/04/30 10:38:39;;;;;;;3.10;1.33;;;;;;;27.29;28.01;98660.81;4863690;29;20199;-90
2023/04/30 10:41:08;;;;;;;2.70;1.15;;;;;;;27.46;29.84;98660.53;4846504;29;20240;-91
2023/04/30 10:43:35;;;;;;;5.68;1.40;;;;;;;27.56;29.17;98659.16;4846793;29;20196;-92
2023/04/30 10:46:06;;;;;;;1.73;0.88;;;;;;;27.74;27.23;98653.22;4847328;29;20231;-90
2023/04/30 10:48:34;;;;;;;2.70;1.02;;;;;;;26.98;28.94;98649.66;4847777;29;20319;-91
2023/04/30 10:50:59;;;;;;;2.20;1.05;;;;;;;27.48;29.40;98653.09;4846830;29;20200;-90
2023/04/30 10:53:29;;;;;;;6.10;1.25;;;;;;;27.85;29.44;98644.56;4862998;29;20332;-90
2023/04/30 10:56:05;;;;;;;6.80;1.30;;;;;;;27.43;29.27;98648.31;4845980;29;20601;-90
2023/04/30 10:58:34;;;;;;;3.78;1.17;;;;;;;27.61;29.28;98639.69;4862922;29;20227;-90
2023/04/30 11:01:13;;;;;;;2.17;1.00;;;;;;;28.11;27.51;98639.25;4846700;29;20291;-91
2023/04/30 11:04:08;;;;;;;1.27;0.65;;;;;;;28.47;28.00;98639.72;4844183;29;20192;-90
2023/04/30 11:06:52;;;;;;;3.70;0.90;;;;;;;28.44;27.74;98642.84;4862252;29;20188;-90
2023/04/30 11:09:19;;;;;;;4.43;1.40;;;;;;;28.66;28.04;98632.72;4863429;29;20188;-90
2023/04/30 11:11:46;;;;;;;1.83;0.75;;;;;;;28.73;27.29;98630.00;4862784;29;20211;-91
2023/04/30 11:14:12;;;;;;;1.92;0.98;;;;;;;28.85;26.13;98631.84;4844022;29;20276;-90
2023/04/30 11:16:40;;;;;;;1.33;0.65;;;;;;;28.37;25.48;98627.69;4861505;29;20676;-92
2023/04/30 11:19:13;;;;;;;1.40;0.55;;;;;;;28.32;26.75;98635.56;4846331;29;20192;-91
2023/04/30 11:22:04;;;;;;;1.55;0.68;;;;;;;28.25;25.82;98632.03;4856531;29;20208;-91
2023/04/30 11:24:57;;;;;;;2.13;0.93;;;;;;;28.29;26.73;98630.59;4846658;29;20188;-90
2023/04/30 11:27:26;;;;;;;4.47;1.15;;;;;;;28.31;26.82;98628.50;4857930;29;20203;-92
2023/04/30 11:29:53;;;;;;;3.30;0.88;;;;;;;28.09;26.74;98619.78;4862653;29;20188;-90
2023/04/30 11:32:23;;;;;;;2.60;0.95;;;;;;;27.75;27.13;98631.44;4858267;29;20188;-92
2023/04/30 11:34:49;;;;;;;2.67;0.68;;;;;;;27.90;27.94;98628.59;4846614;29;20272;-90
2023/04/30 11:37:43;;;;;;;1.40;0.50;;;;;;;28.14;26.53;98627.25;4843091;29;20188;-92
2023/04/30 11:40:12;;;;;;;1.40;0.88;;;;;;;28.23;25.94;98626.00;4860712;29;20813;-90
2023/04/30 11:42:42;;;;;;;1.02;0.43;;;;;;;28.17;26.26;98616.88;4863296;29;20195;-92
2023/04/30 11:45:10;;;;;;;1.83;1.02;;;;;;;27.74;26.69;98628.97;4877487;29;20207;-92
2023/04/30 11:47:44;;;;;;;3.03;0.68;;;;;;;27.15;27.04;98616.03;4845223;29;20188;-91
2023/04/30 11:50:12;;;;;;;2.60;0.75;;;;;;;27.71;27.63;98615.91;4860260;29;20312;-90
2023/04/30 11:52:38;;;;;;;2.17;0.60;;;;;;;28.26;26.42;98621.03;4860918;29;20176;-92
2023/04/30 11:55:12;;;;;;;1.33;0.80;;;;;;;28.74;26.42;98616.31;4844896;29;20192;-91
2023/04/30 11:57:43;;;;;;;0.90;0.50;;;;;;;28.53;25.94;98617.34;4844620;29;20179;-92
2023/04/30 12:00:17;;;;;;;3.33;0.75;;;;;;;28.12;27.63;98615.84;4845004;29;20277;-93
2023/04/30 12:02:45;;;;;;;2.00;0.80;;;;;;;27.15;27.56;98615.22;4845280;29;20684;-92
2023/04/30 12:05:19;;;;;;;1.50;0.60;;;;;;;26.62;28.24;98614.81;4846427;29;20204;-92
2023/04/30 12:07:49;;;;;;;1.65;0.68;;;;;;;27.57;28.91;98609.63;4846347;29;20177;-90
2023/04/30 12:10:15;;;;;;;3.60;0.85;;;;;;;28.08;26.67;98610.03;4846369;29;20275;-92
2023/04/30 12:12:43;;;;;;;1.92;0.70;;;;;;;27.88;26.68;98607.25;4862680;29;20204;-91
2023/04/30 12:15:13;;;;;;;1.90;0.98;;;;;;;28.18;27.12;98606.91;4862578;29;20180;-91
2023/04/30 12:17:39;;;;;;;2.92;0.80;;;;;;;28.61;25.93;98603.69;4862324;29;20176;-91
2023/04/30 12:20:06;;;;;;;2.72;0.88;;;;;;;28.67;25.80;98606.59;4862812;29;20513;-91
2023/04/30 12:22:32;;;;;;;1.55;0.73;;;;;;;29.12;25.41;98592.16;4846030;29;20276;-89
2023/04/30 12:24:58;;;;;;;2.75;0.90;;;;;;;29.02;25.96;98591.78;4862520;29;20641;-91
2023/04/30 12:27:24;;;;;;;3.30;0.90;;;;;;;29.28;25.19;98594.44;4862162;29;20176;-91
2023/04/30 12:29:50;;;;;;;1.67;0.63;;;;;;;29.30;24.99;98602.34;4862233;29;20196;-91
2023/04/30 12:32:20;;;;;;;3.58;1.15;;;;;;;29.28;26.32;98593.59;4862634;29;20271;-91
2023/04/30 12:34:47;;;;;;;1.92;0.90;;;;;;;29.26;24.94;98585.72;4862285;29;20180;-91
2023/04/30 12:37:16;;;;;;;2.85;0.90;;;;;;;29.24;25.37;98590.53;4862242;29;20602;-91
2023/04/30 12:39:42;;;;;;;2.72;0.90;;;;;;;29.04;25.85;98587.00;4862185;29;20180;-91
2023/04/30 12:42:07;;;;;;;1.55;0.63;;;;;;;29.01;26.12;98585.53;4861871;29;20215;-91
2023/04/30 12:44:42;;;;;;;2.75;1.05;;;;;;;28.84;25.24;98588.91;4846066;29;20623;-90
2023/04/30 12:47:11;;;;;;;1.75;0.95;;;;;;;28.61;26.29;98587.50;4845782;29;20645;-91
2023/04/30 12:49:36;;;;;;;2.50;1.02;;;;;;;28.87;27.36;98585.78;4876425;29;20261;-92
2023/04/30 12:52:08;;;;;;;2.47;1.10;;;;;;;29.14;25.98;98577.41;4845542;29;20184;-91
2023/04/30 12:54:34;;;;;;;2.67;0.80;;;;;;;29.35;25.83;98580.94;4845553;29;20188;-91
2023/04/30 12:57:04;;;;;;;1.30;0.77;;;;;;;29.55;25.21;98578.97;4861989;29;20176;-91
2023/04/30 12:59:54;;;;;;;3.03;1.00;;;;;;;29.71;25.32;98573.91;4845323;29;20176;-91
2023/04/30 13:02:23;;;;;;;1.33;0.80;;;;;;;29.73;25.47;98576.38;4845347;29;20177;-91
2023/04/30 13:04:49;;;;;;;1.83;0.98;;;;;;;29.98;25.51;98584.59;4876062;29;20231;-91
2023/04/30 13:07:15;;;;;;;1.73;0.90;;;;;;;30.04;24.72;98572.88;4876243;29;20185;-92
2023/04/30 13:09:41;;;;;;;2.47;0.80;;;;;;;29.88;24.69;98573.41;4861824;29;20241;-91
2023/04/30 13:12:07;;;;;;;3.33;1.05;;;;;;;29.79;25.24;98589.91;4845893;29;20554;-91
2023/04/30 13:14:32;;;;;;;1.20;0.73;;;;;;;29.47;26.00;98582.75;4845971;29;20177;-91
2023/04/30 13:16:58;;;;;;;3.17;0.90;;;;;;;28.72;26.60;98590.59;4861472;29;20559;-91
2023/04/30 13:19:25;;;;;;;4.05;1.08;;;;;;;28.42;26.42;98579.38;4876018;29;20191;-92
2023/04/30 13:21:51;;;;;;;4.32;0.98;;;;;;;28.08;27.42;98583.06;4861461;29;20211;-91
2023/04/30 13:24:17;;;;;;;1.88;1.00;;;;;;;27.78;28.59;98581.72;4845118;29;20290;-92
2023/04/30 13:26:43;;;;;;;1.55;0.93;;;;;;;27.52;28.88;98574.41;4872181;29;20275;-90
2023/04/30 13:29:08;;;;;;;2.72;0.95;;;;;;;27.02;29.87;98572.91;4850093;29;20780;-93
2023/04/30 13:31:34;;;;;;;3.35;1.20;;;;;;;26.40;29.65;98577.41;4850110;29;20629;-92
2023/04/30 13:34:00;;;;;;;3.20;1.02;;;;;;;26.23;30.23;98572.28;4859813;29;20188;-93
2023/04/30 13:36:32;;;;;;;2.22;0.80;;;;;;;25.58;30.46;98575.13;4833146;29;20177;-91
2023/04/30 13:38:59;;;;;;;1.85;1.05;;;;;;;25.56;30.06;98581.69;4826765;29;20181;-92
2023/04/30 13:41:25;;;;;;;4.03;1.30;;;;;;;25.57;30.58;98572.63;4842678;29;20201;-91
2023/04/30 13:43:52;;;;;;;2.42;1.05;;;;;;;26.02;29.97;98574.97;4830510;29;20188;-90
2023/04/30 13:46:19;;;;;;;1.88;1.15;;;;;;;25.97;29.42;98571.22;4844929;29;20177;-91
2023/04/30 13:48:48;;;;;;;2.92;1.10;;;;;;;25.58;29.59;98569.75;4844940;29;20223;-92
2023/04/30 13:51:15;;;;;;;2.63;0.95;;;;;;;25.37;30.49;98564.31;4844747;29;20253;-90
2023/04/30 13:53:43;;;;;;;3.65;0.98;;;;;;;26.04;29.33;98562.19;4861104;29;20249;-92
2023/04/30 13:56:09;;;;;;;3.65;1.20;;;;;;;26.39;29.37;98554.25;4861189;29;20180;-92
2023/04/30 13:58:37;;;;;;;3.15;0.95;;;;;;;26.82;29.00;98551.28;4861204;29;20626;-91